Lenore, ID

5:48 PM PST on December 21, 2014 (GMT -0800)
RAWS DENT ID US | Change Station
CLOSE
Current Station
Personal Weather Station
Location: Ahsahka, ID
Elevation: 1700 ft
Nearby Weather Stations

Elev 1700 ft 46.62 °N, 116.22 °W | Updated 40 minutes ago

Clear
Clear
49.0 °F
Feels Like 48 °F
N
4.0
Wind Variable Wind from ESE
Gusts 17.0 mph

Today
High -- | Low -- °F
--% Chance of Precip.
Yesterday
High -- | Low -- °F
Precip. -- in
7:26 AM 3:59 PM
New Moon, 0% visible
Pressure 29.94 in
Visibility 10.0 miles
Clouds Clear
Windchill 48 °F
Dew Point 39.0 °F
Humidity 69%
Rainfall 1.09 in
Snow Depth Not available.
UV 0 out of 12
Pollen .10 out of 12
Air Quality Not available.
Flu Activity Not available.
METAR KLWS 220056Z AUTO 24005KT 10SM CLR 09/02 A2994 RMK AO2 SLP139 T00940022

More Conditions Fewer Conditions

Pressure 29.94 in
Visibility 10.0 miles
Clouds Clear
Windchill 48 °F
Dew Point 39.0 °F
Humidity 69%
Rainfall 1.09 in
Snow Depth Not available.
UV 0 out of 12
Pollen .10 out of 12
Air Quality Not available.
Flu Activity Not available.
METAR KLWS 220056Z AUTO 24005KT 10SM CLR 09/02 A2994 RMK AO2 SLP139 T00940022

More Conditions Fewer Conditions

10-Day Weather Forecast

Almanac

Astronomy

Dec. 21, 2014 Rise Set
Actual Time
Civil Twilight
Nautical Twilight
Astronomical Twilight
Moon
Length of Visible Light
Length of Day
Tomorrow will be .
, % of the Moon is Illuminated

Today's Extremes

State Highs State Lows

Community

WunderPhotos

Upload Photos

1,779,519 photos uploaded!

WunderBlogs® & News

Nearby

Air Quality

  Air Quality AQ Index Pollutant
Not available.

Snow Depth

Station Depth Elevation

Earthquake Activity

City Distance Mag. Time & Date
Minimum magnitude displayed is 2.5.

Coastal Water Temperatures

Place Temperature

Nearby Weather Stations